Cruisers Forum
 


Join CruisersForum Today

Reply
 
Thread Tools Rate Thread Display Modes
Old 10-05-2012, 02:09   #1
Registered User

Join Date: May 2012
Posts: 2
Track Interval 1 Second does not work

Hello,

As a new user to this software using latest download, I wish to log at 1 second intervals. Now when trying to do this and exporting the track I see it seems to be logging on distance 0.01nm. THis is not sufficient for what I wish to do.

So looking around this forum I find this http://www.cruisersforum.com/forums/f134/erratic-timestamps-81522.html

Now in that thread it suggests in code 0.001nm is the inteval. Can you please check that this has not been changed to 0.01nm?

Cheers
PJ
__________________
BatcaveBunyip is offline   Reply With Quote
Old 10-05-2012, 03:10   #2
Registered User

Join Date: Feb 2010
Location: On the go. Not in Prague.
Posts: 4,018
Re: Track Interval 1 Second does not work

PJ...
Could you post a piece of the NMEA stream coming from your GPS? It has not been changed to 0.01, otherwise I would probably have posted it yesterday in the thread you refer to.

Pavel
__________________
nohal is offline   Reply With Quote
Old 10-05-2012, 19:07   #3
Registered User

Join Date: May 2012
Posts: 2
Re: Track Interval 1 Second does not work

Was not able to attach a 10kb file so please see below

$GPGGA,010232.48,1226.180000,S,13047.570808,E,1,07 ,2.0,00024.926,M,00000.000,M,0.00,*52
$GPGGA,010233.48,1226.180000,S,13047.573639,E,1,07 ,2.0,00024.921,M,00000.000,M,0.00,*5B
$GPGGA,010234.48,1226.179998,S,13047.576473,E,1,07 ,2.0,00024.919,M,00000.000,M,0.00,*50
$GPGGA,010235.48,1226.180000,S,13047.579327,E,1,07 ,2.0,00024.922,M,00000.000,M,0.00,*5E
$GPGGA,010236.49,1226.179998,S,13047.582184,E,1,07 ,2.0,00024.927,M,00000.000,M,0.00,*58
$GPGGA,010237.49,1226.180000,S,13047.585022,E,1,07 ,2.0,00024.936,M,00000.000,M,0.00,*5D
$GPGGA,010238.48,1226.180000,S,13047.587830,E,1,07 ,2.0,00024.949,M,00000.000,M,0.00,*52
$GPGGA,010239.48,1226.180000,S,13047.590683,E,1,07 ,2.0,00024.964,M,00000.000,M,0.00,*5C
$GPGGA,010240.48,1226.179998,S,13047.593517,E,1,07 ,2.0,00024.981,M,00000.000,M,0.00,*5A
$GPGGA,010241.48,1226.180000,S,13047.596352,E,1,07 ,2.0,00025.000,M,00000.000,M,0.00,*56
$GPGGA,010242.48,1226.180000,S,13047.599197,E,1,07 ,2.0,00025.020,M,00000.000,M,0.00,*53
$GPGGA,010243.48,1226.180002,S,13047.602043,E,1,07 ,2.0,00025.039,M,00000.000,M,0.00,*51
$GPGGA,010244.49,1226.180000,S,13047.604908,E,1,07 ,2.0,00025.057,M,00000.000,M,0.00,*5D
$GPGGA,010245.48,1226.180000,S,13047.607727,E,1,07 ,2.0,00025.073,M,00000.000,M,0.00,*5B
$GPGGA,010246.48,1226.180000,S,13047.610538,E,1,07 ,2.0,00025.086,M,00000.000,M,0.00,*58
$GPGGA,010247.48,1226.180000,S,13047.613407,E,1,07 ,2.0,00025.096,M,00000.000,M,0.00,*56
$GPGGA,010248.48,1226.180000,S,13047.616230,E,1,07 ,2.0,00025.101,M,00000.000,M,0.00,*51
$GPGGA,010249.48,1226.180000,S,13047.619061,E,1,07 ,2.0,00025.102,M,00000.000,M,0.00,*5A
$GPGGA,010250.48,1226.180000,S,13047.621910,E,1,07 ,2.0,00025.099,M,00000.000,M,0.00,*55
$GPGGA,010251.48,1226.180000,S,13047.624733,E,1,07 ,2.0,00025.091,M,00000.000,M,0.00,*56
$GPGGA,010252.49,1226.180000,S,13047.627613,E,1,07 ,2.0,00025.079,M,00000.000,M,0.00,*52
$GPGGA,010253.49,1226.180000,S,13047.630459,E,1,07 ,2.0,00025.063,M,00000.000,M,0.00,*52
$GPGGA,010254.47,1226.180000,S,13047.633247,E,1,07 ,2.0,00025.044,M,00000.000,M,0.00,*54
$GPGGA,010255.48,1226.179998,S,13047.636112,E,1,07 ,2.0,00025.022,M,00000.000,M,0.00,*52
$GPGGA,010256.48,1226.180000,S,13047.638939,E,1,07 ,2.0,00025.000,M,00000.000,M,0.00,*50
$GPGGA,010257.48,1226.180000,S,13047.641777,E,1,07 ,2.0,00024.977,M,00000.000,M,0.00,*53
$GPGGA,010258.48,1226.180000,S,13047.644623,E,1,07 ,2.0,00024.955,M,00000.000,M,0.00,*59
$GPGGA,010259.48,1226.179998,S,13047.647446,E,1,07 ,2.0,00024.934,M,00000.000,M,0.00,*53
$GPGGA,010300.49,1226.179998,S,13047.650318,E,1,07 ,2.0,00024.916,M,00000.000,M,0.00,*55
$GPGGA,010301.49,1226.180000,S,13047.653156,E,1,07 ,2.0,00024.902,M,00000.000,M,0.00,*54
$GPGGA,010302.48,1226.180000,S,13047.655987,E,1,07 ,2.0,00024.892,M,00000.000,M,0.00,*5C
$GPGGA,010303.48,1226.180000,S,13047.658821,E,1,07 ,2.0,00024.887,M,00000.000,M,0.00,*59
$GPGGA,010304.48,1226.180000,S,13047.661663,E,1,07 ,2.0,00024.887,M,00000.000,M,0.00,*5C
$GPGGA,010305.48,1226.180000,S,13047.664490,E,1,07 ,2.0,00024.892,M,00000.000,M,0.00,*52
$GPGGA,010306.48,1226.180000,S,13047.667336,E,1,07 ,2.0,00024.901,M,00000.000,M,0.00,*52
$GPGGA,010307.48,1226.180000,S,13047.670174,E,1,07 ,2.0,00024.915,M,00000.000,M,0.00,*54
$GPGGA,010308.49,1226.180000,S,13047.673038,E,1,07 ,2.0,00024.933,M,00000.000,M,0.00,*54
$GPGGA,010309.49,1226.180000,S,13047.675873,E,1,07 ,2.0,00024.954,M,00000.000,M,0.00,*55
$GPGGA,010310.48,1226.180000,S,13047.678696,E,1,07 ,2.0,00024.976,M,00000.000,M,0.00,*54
$GPGGA,010311.48,1226.180000,S,13047.681530,E,1,07 ,2.0,00025.000,M,00000.000,M,0.00,*55
$GPGGA,010312.48,1226.180000,S,13047.684368,E,1,07 ,2.0,00025.024,M,00000.000,M,0.00,*5E
$GPGGA,010313.48,1226.180000,S,13047.687199,E,1,07 ,2.0,00025.046,M,00000.000,M,0.00,*54
$GPGGA,010314.48,1226.180000,S,13047.690041,E,1,07 ,2.0,00025.066,M,00000.000,M,0.00,*53
$GPGGA,010315.49,1226.180000,S,13047.692913,E,1,07 ,2.0,00025.083,M,00000.000,M,0.00,*54
$GPGGA,010316.49,1226.180000,S,13047.695744,E,1,07 ,2.0,00025.097,M,00000.000,M,0.00,*59
$GPGGA,010317.47,1226.180000,S,13047.698547,E,1,07 ,2.0,00025.105,M,00000.000,M,0.00,*50
$GPGGA,010318.49,1226.180000,S,13047.701431,E,1,07 ,2.0,00025.109,M,00000.000,M,0.00,*5C
$GPGGA,010319.48,1226.180000,S,13047.704254,E,1,07 ,2.0,00025.108,M,00000.000,M,0.00,*5D
$GPGGA,010320.48,1226.180000,S,13047.707081,E,1,07 ,2.0,00025.102,M,00000.000,M,0.00,*54
$GPGGA,010321.48,1226.180000,S,13047.709908,E,1,07 ,2.0,00025.092,M,00000.000,M,0.00,*5B
$GPGGA,010322.48,1226.180000,S,13047.712749,E,1,07 ,2.0,00025.078,M,00000.000,M,0.00,*5D
$GPGGA,010323.48,1226.180000,S,13047.715584,E,1,07 ,2.0,00025.061,M,00000.000,M,0.00,*50
$GPGGA,010324.49,1226.180000,S,13047.718460,E,1,07 ,2.0,00025.042,M,00000.000,M,0.00,*51
$GPGGA,010325.48,1226.179998,S,13047.721291,E,1,07 ,2.0,00025.021,M,00000.000,M,0.00,*58
$GPGGA,010326.48,1226.180000,S,13047.724121,E,1,07 ,2.0,00025.000,M,00000.000,M,0.00,*5B
$GPGGA,010327.48,1226.180000,S,13047.726959,E,1,07 ,2.0,00024.979,M,00000.000,M,0.00,*59
$GPGGA,010328.48,1226.180000,S,13047.729790,E,1,07 ,2.0,00024.960,M,00000.000,M,0.00,*5A
$GPGGA,010329.48,1226.180000,S,13047.732620,E,1,07 ,2.0,00024.944,M,00000.000,M,0.00,*5D
$GPGGA,010330.48,1226.179998,S,13047.735466,E,1,07 ,2.0,00024.930,M,00000.000,M,0.00,*5F
$GPGGA,010331.47,1226.180000,S,13047.738293,E,1,07 ,2.0,00024.920,M,00000.000,M,0.00,*5F
$GPGGA,010332.49,1226.180000,S,13047.741188,E,1,07 ,2.0,00024.914,M,00000.000,M,0.00,*52
$GPGGA,010333.49,1226.180000,S,13047.744003,E,1,07 ,2.0,00024.912,M,00000.000,M,0.00,*52
$GPGGA,010334.48,1226.180000,S,13047.746834,E,1,07 ,2.0,00024.914,M,00000.000,M,0.00,*5C
$GPGGA,010335.48,1226.180000,S,13047.749672,E,1,07 ,2.0,00024.920,M,00000.000,M,0.00,*59
$GPGGA,010336.48,1226.180000,S,13047.752499,E,1,07 ,2.0,00024.929,M,00000.000,M,0.00,*5E
$GPGGA,010337.48,1226.180000,S,13047.755329,E,1,07 ,2.0,00024.941,M,00000.000,M,0.00,*5A
$GPGGA,010338.48,1226.180000,S,13047.758175,E,1,07 ,2.0,00024.955,M,00000.000,M,0.00,*56
$GPGGA,010339.49,1226.180000,S,13047.761044,E,1,07 ,2.0,00024.970,M,00000.000,M,0.00,*58
$GPGGA,010340.48,1226.180000,S,13047.763844,E,1,07 ,2.0,00024.985,M,00000.000,M,0.00,*57
$GPGGA,010341.48,1226.180000,S,13047.766708,E,1,07 ,2.0,00025.000,M,00000.000,M,0.00,*51
$GPGGA,010342.49,1226.180000,S,13047.769554,E,1,07 ,2.0,00025.014,M,00000.000,M,0.00,*52
$GPGGA,010343.48,1226.180000,S,13047.772392,E,1,07 ,2.0,00025.027,M,00000.000,M,0.00,*54
$GPGGA,010344.48,1226.180000,S,13047.775215,E,1,07 ,2.0,00025.037,M,00000.000,M,0.00,*5B
$GPGGA,010345.48,1226.180000,S,13047.778049,E,1,07 ,2.0,00025.044,M,00000.000,M,0.00,*58
$GPGGA,010346.48,1226.180000,S,13047.780876,E,1,07 ,2.0,00025.049,M,00000.000,M,0.00,*55
$GPGGA,010347.47,1226.180000,S,13047.783714,E,1,07 ,2.0,00025.051,M,00000.000,M,0.00,*5A
$GPGGA,010348.49,1226.180000,S,13047.786594,E,1,07 ,2.0,00025.050,M,00000.000,M,0.00,*55
$GPGGA,010349.48,1226.180000,S,13047.789425,E,1,07 ,2.0,00025.047,M,00000.000,M,0.00,*57
$GPGGA,010350.48,1226.180000,S,13047.792263,E,1,07 ,2.0,00025.042,M,00000.000,M,0.00,*54
$GPGGA,010351.48,1226.180000,S,13047.795090,E,1,07 ,2.0,00025.036,M,00000.000,M,0.00,*5F
__________________
BatcaveBunyip is offline   Reply With Quote
Reply

Thread Tools
Display Modes Rate This Thread
Rate This Thread:

Posting Rules
You may not post new threads
You may not post replies
You may not post attachments
You may not edit your posts

BB code is On
Smilies are On
[IMG] code is On
HTML code is Off
Trackbacks are Off
Pingbacks are Off
Refbacks are Off




Copyright 2002- Social Knowledge, LLC All Rights Reserved.

All times are GMT -7. The time now is 22:54.


Google+
Powered by vBulletin® Version 3.8.8 Beta 1
Copyright ©2000 - 2017, vBulletin Solutions, Inc.
Social Knowledge Networks
Powered by vBulletin® Version 3.8.8 Beta 1
Copyright ©2000 - 2017, vBulletin Solutions, Inc.

ShowCase vBulletin Plugins by Drive Thru Online, Inc.